Time;durP1;ratioP1;P1;durP2;ratioP2;P2;SDS_P1;SDS_P2;PMS_P1;PMS_P2;Temp;Humidity;BMP_temperature;BMP_pressure;BME280_temperature;BME280_humidity;BME280_pressure;Samples;Min_cycle;Max_cycle;Signal;HPM_P1;HPM_P2
2021/07/01 00:00:20;;;;;;;4.93;4.53;;;;;;;;;;5070348;28;20192;-87
2021/07/01 00:02:46;;;;;;;5.43;4.93;;;;;;;;;;5053580;28;20207;-86
2021/07/01 00:05:14;;;;;;;7.13;5.40;;;;;;;;;;5063062;28;20177;-87
2021/07/01 00:07:44;;;;;;;5.60;5.10;;;;;;;;;;5070609;28;20200;-87
2021/07/01 00:10:16;;;;;;;5.83;5.33;;;;;;;;;;5067273;28;20176;-87
2021/07/01 00:12:42;;;;;;;6.17;5.63;;;;;;;;;;5074573;28;20241;-86
2021/07/01 00:15:10;;;;;;;5.57;5.07;;;;;;;;;;5074034;28;20666;-87
2021/07/01 00:17:36;;;;;;;7.27;6.00;;;;;;;;;;5073978;28;20180;-86
2021/07/01 00:20:08;;;;;;;6.53;5.50;;;;;;;;;;5073504;28;20196;-86
2021/07/01 00:22:34;;;;;;;6.57;5.83;;;;;;;;;;5074298;28;20176;-86
2021/07/01 00:25:01;;;;;;;5.63;5.13;;;;;;;;;;5073429;28;20576;-87
2021/07/01 00:27:28;;;;;;;6.93;5.97;;;;;;;;;;5073761;28;20221;-87
2021/07/01 00:29:55;;;;;;;6.20;5.60;;;;;;;;;;5073924;28;20259;-87
2021/07/01 00:32:21;;;;;;;6.53;5.93;;;;;;;;;;5075051;28;20200;-84
2021/07/01 00:34:49;;;;;;;6.00;5.37;;;;;;;;;;5073233;28;20492;-87
2021/07/01 00:37:16;;;;;;;6.20;5.07;;;;;;;;;;5072985;28;20275;-87
2021/07/01 00:39:42;;;;;;;6.03;5.53;;;;;;;;;;5071684;28;20953;-86
2021/07/01 00:42:08;;;;;;;5.90;5.40;;;;;;;;;;5074205;28;20210;-87
2021/07/01 00:44:34;;;;;;;5.70;5.17;;;;;;;;;;5073523;28;20191;-87
2021/07/01 00:47:00;;;;;;;5.23;4.77;;;;;;;;;;5073122;28;20186;-87
2021/07/01 00:49:26;;;;;;;6.20;4.60;;;;;;;;;;5071962;28;20207;-86
2021/07/01 00:51:53;;;;;;;5.47;4.97;;;;;;;;;;5072526;28;20169;-86
2021/07/01 00:54:19;;;;;;;5.07;4.60;;;;;;;;;;5071969;28;20644;-87
2021/07/01 00:56:45;;;;;;;5.77;5.20;;;;;;;;;;5072357;28;20212;-86
2021/07/01 00:59:12;;;;;;;6.17;5.07;;;;;;;;;;5071727;28;20788;-86
2021/07/01 01:01:38;;;;;;;5.50;5.00;;;;;;;;;;5071987;28;20299;-86
2021/07/01 01:04:04;;;;;;;5.90;5.40;;;;;;;;;;5074270;28;20229;-87
2021/07/01 01:06:33;;;;;;;6.13;5.53;;;;;;;;;;5074469;28;20249;-87
2021/07/01 01:08:59;;;;;;;5.87;5.27;;;;;;;;;;5071992;28;20189;-86
2021/07/01 01:11:27;;;;;;;5.53;5.03;;;;;;;;;;5071161;28;20188;-86
2021/07/01 01:13:53;;;;;;;6.20;5.23;;;;;;;;;;5071204;28;20181;-87
2021/07/01 01:16:20;;;;;;;5.30;4.90;;;;;;;;;;5070819;28;20192;-86
2021/07/01 01:18:46;;;;;;;5.60;5.10;;;;;;;;;;5075123;28;20306;-86
2021/07/01 01:21:13;;;;;;;5.30;4.90;;;;;;;;;;5071664;28;20267;-87
2021/07/01 01:23:39;;;;;;;5.13;4.67;;;;;;;;;;5071618;28;20615;-86
2021/07/01 01:26:06;;;;;;;5.03;4.53;;;;;;;;;;5071686;28;20173;-86
2021/07/01 01:28:32;;;;;;;5.87;4.93;;;;;;;;;;5072962;28;20966;-86
2021/07/01 01:30:58;;;;;;;5.27;4.77;;;;;;;;;;5072843;28;20168;-86
2021/07/01 01:33:25;;;;;;;5.27;4.77;;;;;;;;;;5071319;28;20191;-86
2021/07/01 01:35:52;;;;;;;5.57;5.03;;;;;;;;;;5070506;28;20800;-87
2021/07/01 01:38:18;;;;;;;6.40;5.67;;;;;;;;;;5071329;28;20256;-86
2021/07/01 01:40:47;;;;;;;7.20;4.93;;;;;;;;;;5070728;28;20227;-86
2021/07/01 01:43:14;;;;;;;5.53;4.70;;;;;;;;;;5070586;28;20173;-86
2021/07/01 01:45:40;;;;;;;5.93;4.77;;;;;;;;;;5071044;28;20204;-86
2021/07/01 01:48:06;;;;;;;5.00;4.60;;;;;;;;;;5068752;28;20185;-86
2021/07/01 01:50:33;;;;;;;5.17;4.67;;;;;;;;;;5069559;28;20200;-86
2021/07/01 01:52:59;;;;;;;5.27;4.77;;;;;;;;;;5070561;28;20188;-86
2021/07/01 01:55:25;;;;;;;5.43;4.93;;;;;;;;;;5066725;28;20523;-87
2021/07/01 01:57:52;;;;;;;8.37;5.20;;;;;;;;;;5071226;28;20627;-86
2021/07/01 02:00:19;;;;;;;6.47;5.20;;;;;;;;;;5070582;28;20177;-86
2021/07/01 02:02:46;;;;;;;5.20;4.77;;;;;;;;;;5070481;28;20202;-86
2021/07/01 02:05:12;;;;;;;5.00;4.60;;;;;;;;;;5071560;28;20213;-86
2021/07/01 02:07:39;;;;;;;5.03;4.43;;;;;;;;;;5071957;28;20197;-86
2021/07/01 02:10:07;;;;;;;5.23;4.73;;;;;;;;;;5070383;28;20184;-86
2021/07/01 02:12:33;;;;;;;4.90;4.40;;;;;;;;;;5070699;28;20182;-86
2021/07/01 02:14:59;;;;;;;4.67;4.20;;;;;;;;;;5070573;28;20185;-86
2021/07/01 02:17:25;;;;;;;5.17;4.53;;;;;;;;;;5072415;28;20170;-86
2021/07/01 02:19:52;;;;;;;7.43;6.60;;;;;;;;;;5069864;28;20196;-86
2021/07/01 02:22:18;;;;;;;5.10;4.60;;;;;;;;;;5071691;28;20623;-86
2021/07/01 02:24:44;;;;;;;7.40;5.90;;;;;;;;;;5070208;28;20192;-86
2021/07/01 02:27:10;;;;;;;5.20;4.70;;;;;;;;;;5070408;28;20172;-87
2021/07/01 02:29:37;;;;;;;6.63;5.03;;;;;;;;;;5071232;28;20183;-86
2021/07/01 02:32:05;;;;;;;5.83;4.60;;;;;;;;;;5069046;28;20233;-86
2021/07/01 02:34:32;;;;;;;5.60;4.37;;;;;;;;;;5069221;28;20180;-86
2021/07/01 02:36:58;;;;;;;6.70;5.20;;;;;;;;;;5069935;28;20304;-86
2021/07/01 02:39:24;;;;;;;5.80;5.20;;;;;;;;;;5070025;28;20269;-86
2021/07/01 02:41:50;;;;;;;5.57;4.80;;;;;;;;;;5070709;28;20610;-87
2021/07/01 02:44:16;;;;;;;7.03;5.40;;;;;;;;;;5070095;28;20169;-86
2021/07/01 02:46:44;;;;;;;7.30;5.90;;;;;;;;;;5070479;28;20184;-86
2021/07/01 02:49:10;;;;;;;6.17;5.40;;;;;;;;;;5069623;28;20195;-86
2021/07/01 02:51:36;;;;;;;5.73;5.13;;;;;;;;;;5069874;28;20196;-86
2021/07/01 02:54:03;;;;;;;7.10;5.43;;;;;;;;;;5066670;28;20177;-87
2021/07/01 02:56:39;;;;;;;6.43;5.57;;;;;;;;;;5070180;28;20595;-86
2021/07/01 02:59:05;;;;;;;7.00;5.30;;;;;;;;;;5070947;28;20267;-86
2021/07/01 03:01:31;;;;;;;7.40;5.90;;;;;;;;;;5070695;28;20168;-86
2021/07/01 03:03:57;;;;;;;5.93;5.32;;;;;;;;;;5069568;28;20413;-87
2021/07/01 03:06:24;;;;;;;6.67;5.57;;;;;;;;;;5070312;28;20192;-86
2021/07/01 03:08:50;;;;;;;7.77;5.47;;;;;;;;;;5067653;28;20193;-86
2021/07/01 03:11:16;;;;;;;6.73;5.73;;;;;;;;;;5069791;28;20226;-86
2021/07/01 03:13:42;;;;;;;11.27;6.27;;;;;;;;;;5070800;28;20553;-86
2021/07/01 03:16:08;;;;;;;6.50;5.77;;;;;;;;;;5070591;28;20190;-86
2021/07/01 03:18:34;;;;;;;6.97;5.70;;;;;;;;;;5070353;28;20204;-86
2021/07/01 03:21:00;;;;;;;7.20;5.83;;;;;;;;;;5080316;28;20470;-86
2021/07/01 03:23:26;;;;;;;6.77;6.07;;;;;;;;;;5084550;28;20181;-86
2021/07/01 03:25:52;;;;;;;8.37;6.17;;;;;;;;;;5085131;28;20610;-86
2021/07/01 03:28:18;;;;;;;7.70;6.27;;;;;;;;;;5085703;28;20176;-86
2021/07/01 03:30:44;;;;;;;8.27;6.20;;;;;;;;;;5084602;28;20188;-86
2021/07/01 03:33:10;;;;;;;6.40;5.80;;;;;;;;;;5081981;28;20204;-87
2021/07/01 03:35:36;;;;;;;9.37;5.87;;;;;;;;;;5079834;28;20220;-87
2021/07/01 03:38:02;;;;;;;5.73;5.13;;;;;;;;;;5084138;28;20172;-86
2021/07/01 03:40:29;;;;;;;6.30;5.67;;;;;;;;;;5081536;28;20293;-86
2021/07/01 03:42:55;;;;;;;6.97;5.33;;;;;;;;;;5084280;28;20196;-86
2021/07/01 03:45:21;;;;;;;5.00;4.50;;;;;;;;;;5087308;28;20237;-84
2021/07/01 03:47:47;;;;;;;6.43;5.00;;;;;;;;;;5080438;28;20184;-87
2021/07/01 03:50:13;;;;;;;5.20;4.60;;;;;;;;;;5076537;28;20221;-87
2021/07/01 03:52:39;;;;;;;8.03;4.60;;;;;;;;;;5077234;28;20303;-87
2021/07/01 03:55:05;;;;;;;5.80;4.10;;;;;;;;;;5066160;28;20620;-87
2021/07/01 03:57:31;;;;;;;6.03;4.43;;;;;;;;;;5074723;28;20189;-87
2021/07/01 03:59:57;;;;;;;5.93;4.37;;;;;;;;;;5077115;28;20655;-86
2021/07/01 04:02:23;;;;;;;5.47;4.10;;;;;;;;;;5076103;28;20960;-86
2021/07/01 04:04:49;;;;;;;7.63;4.80;;;;;;;;;;5075911;28;20169;-86
2021/07/01 04:07:15;;;;;;;4.70;4.10;;;;;;;;;;5076015;28;20198;-86
2021/07/01 04:09:41;;;;;;;7.40;4.47;;;;;;;;;;5075501;28;20184;-86
2021/07/01 04:12:08;;;;;;;5.43;4.47;;;;;;;;;;5075619;28;20188;-86
2021/07/01 04:14:34;;;;;;;5.47;3.90;;;;;;;;;;5074711;28;20190;-86
2021/07/01 04:17:00;;;;;;;7.03;4.43;;;;;;;;;;5075079;28;20619;-86
2021/07/01 04:19:26;;;;;;;6.27;4.30;;;;;;;;;;5074536;28;20204;-86
2021/07/01 04:21:53;;;;;;;5.17;3.83;;;;;;;;;;5076268;28;20172;-86
2021/07/01 04:24:19;;;;;;;5.50;4.30;;;;;;;;;;5086924;28;20179;-86
2021/07/01 04:26:45;;;;;;;7.27;4.47;;;;;;;;;;5074067;28;20184;-86
2021/07/01 04:29:11;;;;;;;6.57;4.30;;;;;;;;;;5075587;28;20181;-86
2021/07/01 04:31:37;;;;;;;5.13;4.27;;;;;;;;;;5074155;28;20180;-86
2021/07/01 04:34:03;;;;;;;5.00;4.00;;;;;;;;;;5072557;28;20544;-86
2021/07/01 04:36:29;;;;;;;6.00;4.97;;;;;;;;;;5072648;28;20335;-86
2021/07/01 04:38:56;;;;;;;5.50;4.53;;;;;;;;;;5073094;28;20201;-86
2021/07/01 04:41:22;;;;;;;9.73;4.97;;;;;;;;;;5073689;28;20191;-86
2021/07/01 04:43:48;;;;;;;6.83;4.90;;;;;;;;;;5074963;28;20176;-86
2021/07/01 04:46:14;;;;;;;12.83;5.33;;;;;;;;;;5073850;28;20169;-87
2021/07/01 04:48:44;;;;;;;7.17;4.67;;;;;;;;;;5072785;28;20180;-87
2021/07/01 04:51:11;;;;;;;8.90;5.03;;;;;;;;;;5071912;28;20185;-87
2021/07/01 04:53:39;;;;;;;8.90;5.37;;;;;;;;;;5068296;28;20182;-86
2021/07/01 04:56:06;;;;;;;7.17;4.53;;;;;;;;;;5072289;28;20238;-88
2021/07/01 04:58:39;;;;;;;7.07;4.70;;;;;;;;;;5076424;28;20694;-88
2021/07/01 05:01:05;;;;;;;8.43;5.00;;;;;;;;;;5074038;28;20281;-87
2021/07/01 05:03:31;;;;;;;6.87;5.87;;;;;;;;;;5073325;28;20208;-85
2021/07/01 05:05:57;;;;;;;7.87;5.50;;;;;;;;;;5065816;28;20310;-84
2021/07/01 05:08:23;;;;;;;9.50;5.50;;;;;;;;;;5073172;28;20176;-85
2021/07/01 05:10:50;;;;;;;9.17;5.40;;;;;;;;;;5072254;28;20190;-85
2021/07/01 05:13:16;;;;;;;8.17;5.73;;;;;;;;;;5068201;28;20180;-86
2021/07/01 05:15:42;;;;;;;6.27;5.00;;;;;;;;;;5074726;28;20200;-85
2021/07/01 05:18:08;;;;;;;12.23;6.20;;;;;;;;;;5072928;28;20183;-85
2021/07/01 05:20:34;;;;;;;7.93;5.27;;;;;;;;;;5073364;28;20202;-85
2021/07/01 05:23:00;;;;;;;11.10;5.37;;;;;;;;;;5074340;28;20180;-86
2021/07/01 05:25:26;;;;;;;5.97;5.37;;;;;;;;;;5075115;28;20195;-86
2021/07/01 05:27:55;;;;;;;7.10;5.30;;;;;;;;;;5075701;28;20172;-86
2021/07/01 05:30:21;;;;;;;7.87;5.77;;;;;;;;;;5075269;28;20271;-86
2021/07/01 05:32:47;;;;;;;9.60;5.43;;;;;;;;;;5074496;28;20177;-86
2021/07/01 05:35:14;;;;;;;6.43;5.70;;;;;;;;;;5073523;28;20219;-87
2021/07/01 05:37:41;;;;;;;8.17;5.67;;;;;;;;;;5075676;28;20177;-86
2021/07/01 05:40:07;;;;;;;10.27;5.60;;;;;;;;;;5072826;28;20201;-85
2021/07/01 05:42:33;;;;;;;9.70;5.77;;;;;;;;;;5070881;28;20196;-84
2021/07/01 05:44:59;;;;;;;9.07;5.83;;;;;;;;;;5067455;28;20176;-86
2021/07/01 05:47:25;;;;;;;10.30;5.60;;;;;;;;;;5066796;28;20589;-86
2021/07/01 05:49:52;;;;;;;9.97;6.20;;;;;;;;;;5067400;28;20216;-85
2021/07/01 05:52:23;;;;;;;9.93;5.37;;;;;;;;;;5071351;28;20188;-85
2021/07/01 05:54:54;;;;;;;6.80;5.20;;;;;;;;;;5072137;28;20188;-86
2021/07/01 05:57:20;;;;;;;10.47;6.03;;;;;;;;;;5071923;28;20248;-86
2021/07/01 05:59:46;;;;;;;9.40;4.90;;;;;;;;;;5071295;28;20251;-86
2021/07/01 06:02:12;;;;;;;10.57;5.37;;;;;;;;;;5072126;28;20196;-86
2021/07/01 06:04:39;;;;;;;8.10;4.70;;;;;;;;;;5071017;28;20196;-86
2021/07/01 06:07:06;;;;;;;7.67;5.40;;;;;;;;;;5073004;28;20215;-86
2021/07/01 06:09:32;;;;;;;12.93;5.70;;;;;;;;;;5071168;28;20377;-85
2021/07/01 06:11:59;;;;;;;9.17;5.23;;;;;;;;;;5073255;28;20189;-85
2021/07/01 06:14:26;;;;;;;6.90;5.03;;;;;;;;;;5071600;28;20187;-85
2021/07/01 06:16:53;;;;;;;5.70;4.63;;;;;;;;;;5071529;28;20185;-86
2021/07/01 06:19:20;;;;;;;8.03;4.33;;;;;;;;;;5072766;28;20199;-85
2021/07/01 06:21:47;;;;;;;7.70;4.60;;;;;;;;;;5073018;28;20221;-85
2021/07/01 06:24:14;;;;;;;7.20;4.97;;;;;;;;;;5071489;28;20178;-86
2021/07/01 06:26:40;;;;;;;7.27;5.07;;;;;;;;;;5071774;28;20221;-85
2021/07/01 06:29:06;;;;;;;5.77;5.17;;;;;;;;;;5071536;28;20198;-86
2021/07/01 06:31:32;;;;;;;7.73;4.90;;;;;;;;;;5073165;28;20179;-86
2021/07/01 06:33:58;;;;;;;7.27;5.27;;;;;;;;;;5071469;28;20280;-85
2021/07/01 06:36:27;;;;;;;6.90;3.90;;;;;;;;;;5071519;28;20247;-86
2021/07/01 06:38:54;;;;;;;6.83;5.60;;;;;;;;;;5083292;28;20203;-86
2021/07/01 06:41:23;;;;;;;9.47;4.97;;;;;;;;;;5070863;28;20579;-86
2021/07/01 06:43:50;;;;;;;8.47;5.80;;;;;;;;;;5072021;28;20210;-85
2021/07/01 06:46:16;;;;;;;11.67;6.60;;;;;;;;;;5071579;28;20176;-84
2021/07/01 06:48:45;;;;;;;16.77;7.80;;;;;;;;;;5072403;28;20188;-83
2021/07/01 06:51:12;;;;;;;13.37;8.30;;;;;;;;;;5087701;28;21813;-85
2021/07/01 06:53:40;;;;;;;11.87;8.47;;;;;;;;;;5071898;28;20202;-86
2021/07/01 06:56:07;;;;;;;17.70;8.87;;;;;;;;;;5052694;28;20177;-87
2021/07/01 06:58:33;;;;;;;11.67;8.23;;;;;;;;;;5059852;28;20235;-88
2021/07/01 07:00:59;;;;;;;14.97;9.60;;;;;;;;;;5072712;28;20540;-87
2021/07/01 07:03:26;;;;;;;14.03;8.57;;;;;;;;;;5070726;28;20175;-81
2021/07/01 07:05:52;;;;;;;14.63;9.33;;;;;;;;;;5072124;28;20522;-82
2021/07/01 07:08:19;;;;;;;12.27;8.20;;;;;;;;;;5066627;28;20566;-83
2021/07/01 07:10:45;;;;;;;11.87;7.97;;;;;;;;;;5064527;28;20255;-82
2021/07/01 07:13:12;;;;;;;13.23;7.27;;;;;;;;;;5068513;28;20184;-84
2021/07/01 07:15:39;;;;;;;13.50;8.40;;;;;;;;;;5070854;28;20180;-85
2021/07/01 07:18:15;;;;;;;10.20;7.03;;;;;;;;;;5070499;28;20172;-85
2021/07/01 07:20:41;;;;;;;13.73;7.60;;;;;;;;;;5072852;28;20630;-84
2021/07/01 07:23:08;;;;;;;9.00;6.63;;;;;;;;;;5073679;28;20389;-84
2021/07/01 07:25:41;;;;;;;13.37;7.10;;;;;;;;;;5074172;28;20177;-84
2021/07/01 07:28:08;;;;;;;10.90;6.27;;;;;;;;;;5075349;28;20184;-84
2021/07/01 07:30:35;;;;;;;7.37;6.03;;;;;;;;;;5075028;28;20226;-84
2021/07/01 07:33:11;;;;;;;10.60;6.00;;;;;;;;;;5071272;28;20284;-84
2021/07/01 07:35:37;;;;;;;9.47;6.10;;;;;;;;;;5072499;28;20649;-84
2021/07/01 07:38:05;;;;;;;10.20;6.20;;;;;;;;;;5072844;28;20247;-84
2021/07/01 07:40:32;;;;;;;8.87;5.43;;;;;;;;;;5068661;28;20197;-84
2021/07/01 07:43:02;;;;;;;10.40;6.17;;;;;;;;;;5055272;28;20223;-84
2021/07/01 07:45:29;;;;;;;9.53;5.80;;;;;;;;;;5053390;28;20230;-84
2021/07/01 07:47:55;;;;;;;10.83;6.57;;;;;;;;;;5053958;28;20220;-84
2021/07/01 07:50:21;;;;;;;8.87;5.57;;;;;;;;;;5054655;28;20208;-84
2021/07/01 07:52:50;;;;;;;11.30;5.80;;;;;;;;;;5064303;28;20191;-84
2021/07/01 07:55:20;;;;;;;8.50;6.00;;;;;;;;;;5073582;28;20177;-84
2021/07/01 07:57:48;;;;;;;7.03;5.47;;;;;;;;;;5073197;28;20180;-84
2021/07/01 08:00:15;;;;;;;7.10;5.77;;;;;;;;;;5072858;28;20287;-84
2021/07/01 08:02:50;;;;;;;8.93;4.83;;;;;;;;;;5075004;28;20164;-85
2021/07/01 08:05:24;;;;;;;8.27;5.70;;;;;;;;;;5072734;28;20172;-84
2021/07/01 08:07:51;;;;;;;8.83;5.47;;;;;;;;;;5072623;28;20197;-85
2021/07/01 08:10:22;;;;;;;9.93;5.67;;;;;;;;;;5074735;28;20195;-84
2021/07/01 08:12:52;;;;;;;6.40;5.37;;;;;;;;;;5074893;28;20193;-84
2021/07/01 08:15:20;;;;;;;7.70;5.37;;;;;;;;;;5062464;28;20975;-84
2021/07/01 08:17:48;;;;;;;8.50;5.80;;;;;;;;;;5064316;28;20176;-84
2021/07/01 08:20:16;;;;;;;10.83;6.20;;;;;;;;;;5072534;28;20204;-84
2021/07/01 08:22:43;;;;;;;8.93;5.70;;;;;;;;;;5072710;28;20180;-84
2021/07/01 08:25:09;;;;;;;5.95;5.30;;;;;;;;;;5073287;28;20958;-84
2021/07/01 08:27:35;;;;;;;8.43;5.60;;;;;;;;;;5073236;28;20203;-84
2021/07/01 08:30:02;;;;;;;8.27;5.90;;;;;;;;;;5074021;28;20188;-84
2021/07/01 08:32:30;;;;;;;8.33;6.57;;;;;;;;;;5072580;28;20192;-84
2021/07/01 08:34:56;;;;;;;9.07;5.63;;;;;;;;;;5072042;28;20189;-84
2021/07/01 08:37:23;;;;;;;7.53;6.30;;;;;;;;;;5072618;28;20173;-84
2021/07/01 08:39:51;;;;;;;11.27;6.43;;;;;;;;;;5067327;28;20293;-84
2021/07/01 08:42:17;;;;;;;8.40;6.20;;;;;;;;;;5072827;28;20153;-84
2021/07/01 08:44:45;;;;;;;7.87;6.03;;;;;;;;;;5069624;28;20172;-84
2021/07/01 08:47:12;;;;;;;9.90;6.07;;;;;;;;;;5072221;28;20241;-84
2021/07/01 08:49:55;;;;;;;10.43;6.47;;;;;;;;;;5072176;28;20187;-84
2021/07/01 08:52:31;;;;;;;9.77;6.17;;;;;;;;;;5073330;28;20196;-84
2021/07/01 08:55:01;;;;;;;9.03;7.17;;;;;;;;;;5065308;28;20183;-84
2021/07/01 08:57:29;;;;;;;8.93;5.83;;;;;;;;;;5072260;28;20274;-83
2021/07/01 08:59:59;;;;;;;6.37;5.47;;;;;;;;;;5072287;28;20223;-83
2021/07/01 09:02:32;;;;;;;11.57;5.63;;;;;;;;;;5073615;28;20160;-84
2021/07/01 09:05:01;;;;;;;10.23;6.33;;;;;;;;;;5064994;28;20663;-83
2021/07/01 09:07:28;;;;;;;10.90;6.37;;;;;;;;;;5071843;28;20253;-84
2021/07/01 09:09:54;;;;;;;11.07;6.37;;;;;;;;;;5072320;28;20179;-83
2021/07/01 09:12:22;;;;;;;11.47;6.13;;;;;;;;;;5072415;28;20188;-84
2021/07/01 09:14:50;;;;;;;11.93;6.70;;;;;;;;;;5071752;28;20610;-84
2021/07/01 09:17:17;;;;;;;9.63;7.37;;;;;;;;;;5072236;28;20183;-84
2021/07/01 09:19:47;;;;;;;10.47;6.50;;;;;;;;;;5071576;28;20211;-83
2021/07/01 09:22:14;;;;;;;13.40;6.50;;;;;;;;;;5072992;28;20171;-84
2021/07/01 09:24:40;;;;;;;9.70;6.73;;;;;;;;;;5071268;28;20181;-84
2021/07/01 09:27:11;;;;;;;9.97;7.77;;;;;;;;;;5071847;28;20234;-84
2021/07/01 09:29:40;;;;;;;11.37;7.33;;;;;;;;;;5071777;28;20173;-83
2021/07/01 09:32:07;;;;;;;10.57;6.43;;;;;;;;;;5072478;28;20176;-83
2021/07/01 09:34:33;;;;;;;8.53;5.87;;;;;;;;;;5071094;28;20188;-83
2021/07/01 09:37:02;;;;;;;8.60;5.60;;;;;;;;;;5071303;28;20566;-84
2021/07/01 09:39:28;;;;;;;7.37;5.47;;;;;;;;;;5071248;28;20200;-84
2021/07/01 09:42:01;;;;;;;7.53;6.33;;;;;;;;;;5071048;28;20599;-83
2021/07/01 09:44:28;;;;;;;6.67;5.27;;;;;;;;;;5071429;28;20160;-84
2021/07/01 09:46:57;;;;;;;8.63;5.47;;;;;;;;;;5071828;28;20175;-84
2021/07/01 09:49:27;;;;;;;8.93;5.33;;;;;;;;;;5070943;28;20185;-83
2021/07/01 09:51:56;;;;;;;7.93;5.90;;;;;;;;;;5071122;28;20180;-83
2021/07/01 09:54:23;;;;;;;5.93;5.10;;;;;;;;;;5070900;28;20188;-83
2021/07/01 09:56:52;;;;;;;8.80;5.27;;;;;;;;;;5070545;28;20181;-84
2021/07/01 09:59:23;;;;;;;9.03;5.50;;;;;;;;;;5065939;28;20193;-83
2021/07/01 10:01:50;;;;;;;12.90;6.00;;;;;;;;;;5072361;28;20247;-84
2021/07/01 10:04:16;;;;;;;7.27;4.43;;;;;;;;;;5070196;28;20200;-84
2021/07/01 10:06:42;;;;;;;10.20;5.20;;;;;;;;;;5071255;28;20289;-84
2021/07/01 10:09:09;;;;;;;9.00;5.27;;;;;;;;;;5059026;28;20172;-83
2021/07/01 10:11:43;;;;;;;9.77;5.80;;;;;;;;;;5070338;28;20267;-84
2021/07/01 10:14:14;;;;;;;9.50;5.80;;;;;;;;;;5070795;28;20177;-83
2021/07/01 10:16:41;;;;;;;8.37;5.17;;;;;;;;;;5070199;28;20191;-83
2021/07/01 10:19:08;;;;;;;9.50;5.73;;;;;;;;;;5071894;28;20553;-84
2021/07/01 10:21:35;;;;;;;7.27;5.00;;;;;;;;;;5070463;28;20184;-85
2021/07/01 10:24:30;;;;;;;11.57;6.40;;;;;;;;;;5070951;28;20184;-84
2021/07/01 10:26:58;;;;;;;7.80;5.73;;;;;;;;;;5067884;28;20177;-84
2021/07/01 10:29:35;;;;;;;9.63;6.07;;;;;;;;;;5070243;28;20188;-84
2021/07/01 10:32:05;;;;;;;10.37;6.47;;;;;;;;;;5069564;28;20162;-84
2021/07/01 10:34:31;;;;;;;8.43;6.13;;;;;;;;;;5069583;28;20164;-84
2021/07/01 10:37:10;;;;;;;13.07;7.40;;;;;;;;;;5071313;28;20650;-84
2021/07/01 10:39:38;;;;;;;7.63;6.33;;;;;;;;;;5070071;28;20611;-84
2021/07/01 10:42:04;;;;;;;10.93;6.30;;;;;;;;;;5059121;28;20694;-84
2021/07/01 10:44:34;;;;;;;10.20;7.10;;;;;;;;;;5070619;28;20180;-84
2021/07/01 10:47:00;;;;;;;14.37;7.70;;;;;;;;;;5070417;28;20485;-84
2021/07/01 10:49:34;;;;;;;11.17;6.97;;;;;;;;;;5069924;28;20187;-84
2021/07/01 10:52:00;;;;;;;12.03;7.00;;;;;;;;;;5070545;28;20185;-84
2021/07/01 10:54:27;;;;;;;12.47;6.93;;;;;;;;;;5072193;28;20172;-84
2021/07/01 10:57:03;;;;;;;10.63;6.67;;;;;;;;;;5071466;28;20259;-84
2021/07/01 10:59:45;;;;;;;9.77;6.63;;;;;;;;;;5071370;28;20201;-84
2021/07/01 11:02:15;;;;;;;10.70;7.37;;;;;;;;;;5071241;28;20283;-84
2021/07/01 11:04:49;;;;;;;9.90;6.90;;;;;;;;;;5051147;28;20187;-84
2021/07/01 11:07:15;;;;;;;11.90;6.70;;;;;;;;;;5064802;28;20536;-84
2021/07/01 11:09:42;;;;;;;12.87;7.20;;;;;;;;;;5057529;28;21016;-84
2021/07/01 11:12:09;;;;;;;11.20;7.53;;;;;;;;;;5071240;28;20181;-84
2021/07/01 11:14:42;;;;;;;11.03;6.87;;;;;;;;;;5062584;28;20209;-84
2021/07/01 11:17:09;;;;;;;10.57;7.77;;;;;;;;;;5071694;28;20271;-84
2021/07/01 11:19:48;;;;;;;13.87;7.10;;;;;;;;;;5070745;28;20269;-84
2021/07/01 11:22:15;;;;;;;11.03;7.57;;;;;;;;;;5067281;28;20290;-84
2021/07/01 11:24:42;;;;;;;9.43;6.23;;;;;;;;;;5057595;28;20188;-84
2021/07/01 11:27:08;;;;;;;11.37;6.70;;;;;;;;;;5070878;28;20176;-85
2021/07/01 11:29:45;;;;;;;8.90;6.97;;;;;;;;;;5070707;28;20627;-84
2021/07/01 11:32:18;;;;;;;10.93;6.60;;;;;;;;;;5062418;28;20178;-84
2021/07/01 11:34:45;;;;;;;12.17;7.40;;;;;;;;;;5070075;28;20263;-84
2021/07/01 11:37:11;;;;;;;9.63;6.47;;;;;;;;;;5070709;28;20216;-84
2021/07/01 11:39:37;;;;;;;10.07;6.87;;;;;;;;;;5070649;28;20200;-84
2021/07/01 11:42:04;;;;;;;14.23;7.23;;;;;;;;;;5072224;28;20298;-84
2021/07/01 11:44:31;;;;;;;10.60;6.33;;;;;;;;;;5070722;28;20639;-84
2021/07/01 11:46:59;;;;;;;9.83;6.53;;;;;;;;;;5070947;28;20234;-84
2021/07/01 11:49:25;;;;;;;9.60;6.80;;;;;;;;;;5070290;28;20247;-84
2021/07/01 11:51:51;;;;;;;9.03;6.40;;;;;;;;;;5069949;28;20173;-83
2021/07/01 11:54:19;;;;;;;8.43;6.07;;;;;;;;;;5072188;28;20247;-84
2021/07/01 11:56:55;;;;;;;12.70;6.47;;;;;;;;;;5070967;28;20184;-84
2021/07/01 11:59:22;;;;;;;10.27;6.37;;;;;;;;;;5067639;28;20265;-84
2021/07/01 12:01:48;;;;;;;10.47;7.07;;;;;;;;;;5068890;28;20202;-84
2021/07/01 12:04:15;;;;;;;9.53;6.63;;;;;;;;;;5063745;28;20175;-83
2021/07/01 12:06:41;;;;;;;8.87;6.03;;;;;;;;;;5073962;28;20261;-84
2021/07/01 12:09:07;;;;;;;7.27;6.10;;;;;;;;;;5072941;28;20179;-83
2021/07/01 12:11:53;;;;;;;8.10;5.50;;;;;;;;;;5072473;28;20196;-83
2021/07/01 12:14:39;;;;;;;8.13;6.00;;;;;;;;;;5074633;28;20263;-82
2021/07/01 12:17:05;;;;;;;8.63;6.73;;;;;;;;;;5066950;28;20631;-82
2021/07/01 12:19:46;;;;;;;7.90;5.67;;;;;;;;;;5072076;28;20276;-83
2021/07/01 12:22:31;;;;;;;9.87;7.77;;;;;;;;;;5069647;28;20173;-85
2021/07/01 12:24:57;;;;;;;6.90;6.20;;;;;;;;;;5072971;28;20175;-82
2021/07/01 12:27:30;;;;;;;9.43;6.37;;;;;;;;;;5072949;28;20263;-83
2021/07/01 12:29:56;;;;;;;7.40;6.07;;;;;;;;;;5072588;28;20192;-83
2021/07/01 12:32:26;;;;;;;9.70;6.30;;;;;;;;;;5073030;28;20356;-83
2021/07/01 12:34:52;;;;;;;7.03;5.23;;;;;;;;;;5072198;28;20222;-83
2021/07/01 12:37:20;;;;;;;8.20;6.67;;;;;;;;;;5074980;28;20176;-84
2021/07/01 12:39:49;;;;;;;9.17;5.97;;;;;;;;;;5074146;28;20208;-83
2021/07/01 12:42:15;;;;;;;8.23;6.07;;;;;;;;;;5072584;28;20180;-83
2021/07/01 12:44:45;;;;;;;6.97;5.67;;;;;;;;;;5072112;28;20175;-83
2021/07/01 12:47:16;;;;;;;8.30;5.73;;;;;;;;;;5072970;28;20176;-84
2021/07/01 12:49:43;;;;;;;6.73;5.10;;;;;;;;;;5072966;28;20173;-82
2021/07/01 12:52:12;;;;;;;6.90;5.87;;;;;;;;;;5065966;28;20701;-82
2021/07/01 12:54:38;;;;;;;7.73;5.40;;;;;;;;;;5072190;28;20310;-83
2021/07/01 12:57:12;;;;;;;6.53;4.67;;;;;;;;;;5072416;28;20526;-84
2021/07/01 12:59:45;;;;;;;8.70;5.43;;;;;;;;;;5072202;28;20204;-83
2021/07/01 13:02:11;;;;;;;7.80;4.83;;;;;;;;;;5071939;28;20719;-82
2021/07/01 13:04:39;;;;;;;7.27;5.23;;;;;;;;;;5071683;28;20176;-84
2021/07/01 13:07:06;;;;;;;5.83;5.17;;;;;;;;;;5072041;28;20215;-82
2021/07/01 13:09:33;;;;;;;6.57;5.10;;;;;;;;;;5071584;28;20188;-83
2021/07/01 13:12:00;;;;;;;6.97;5.43;;;;;;;;;;5073416;28;20275;-83
2021/07/01 13:14:26;;;;;;;7.90;5.40;;;;;;;;;;5071402;28;20331;-83
2021/07/01 13:17:08;;;;;;;7.13;5.70;;;;;;;;;;5071102;28;20183;-83
2021/07/01 13:19:36;;;;;;;8.03;5.07;;;;;;;;;;5070674;28;20627;-84
2021/07/01 13:22:09;;;;;;;7.80;4.50;;;;;;;;;;5071686;28;20271;-83
2021/07/01 13:24:35;;;;;;;8.27;5.60;;;;;;;;;;5071688;28;20202;-83
2021/07/01 13:27:01;;;;;;;6.40;5.73;;;;;;;;;;5062090;28;20693;-83
2021/07/01 13:29:34;;;;;;;6.67;5.27;;;;;;;;;;5051477;28;20572;-83
2021/07/01 13:32:03;;;;;;;6.37;5.70;;;;;;;;;;5051657;28;20185;-83
2021/07/01 13:34:30;;;;;;;6.97;5.53;;;;;;;;;;5065697;28;20781;-83
2021/07/01 13:36:56;;;;;;;6.90;5.03;;;;;;;;;;5059543;28;20237;-83
2021/07/01 13:39:29;;;;;;;8.13;5.70;;;;;;;;;;5051457;28;20209;-83
2021/07/01 13:41:55;;;;;;;7.63;5.33;;;;;;;;;;5051497;28;20177;-84
2021/07/01 13:44:21;;;;;;;6.87;6.17;;;;;;;;;;5056433;28;20173;-83
2021/07/01 13:46:47;;;;;;;7.70;5.27;;;;;;;;;;5072832;28;20533;-85
2021/07/01 13:49:13;;;;;;;7.17;5.00;;;;;;;;;;5070911;28;20225;-83
2021/07/01 13:51:39;;;;;;;9.47;5.67;;;;;;;;;;5071938;28;20178;-83
2021/07/01 13:54:12;;;;;;;8.43;5.53;;;;;;;;;;5070930;28;20238;-83
2021/07/01 13:56:40;;;;;;;6.57;5.77;;;;;;;;;;5071009;28;20265;-83
2021/07/01 13:59:07;;;;;;;5.70;5.10;;;;;;;;;;5070732;28;20200;-83
2021/07/01 14:01:34;;;;;;;8.50;6.20;;;;;;;;;;5070427;28;20182;-83
2021/07/01 14:04:00;;;;;;;7.13;5.77;;;;;;;;;;5070636;28;20180;-83
2021/07/01 14:06:26;;;;;;;7.50;5.70;;;;;;;;;;5071146;28;20674;-83
2021/07/01 14:08:52;;;;;;;6.50;5.90;;;;;;;;;;5070350;28;20244;-83
2021/07/01 14:11:25;;;;;;;9.13;5.87;;;;;;;;;;5068047;28;20255;-82
2021/07/01 14:13:57;;;;;;;6.20;5.23;;;;;;;;;;5071704;28;20242;-83
2021/07/01 14:16:27;;;;;;;6.90;5.07;;;;;;;;;;5066620;28;20169;-83
2021/07/01 14:18:54;;;;;;;5.90;5.33;;;;;;;;;;5069617;28;20196;-82
2021/07/01 14:21:21;;;;;;;7.17;5.00;;;;;;;;;;5063872;28;20225;-82
2021/07/01 14:23:47;;;;;;;5.30;4.20;;;;;;;;;;5070123;28;20263;-82
2021/07/01 14:26:17;;;;;;;5.27;4.73;;;;;;;;;;5070175;28;20271;-82
2021/07/01 14:28:44;;;;;;;4.40;4.00;;;;;;;;;;5061944;28;20177;-82
2021/07/01 14:31:15;;;;;;;6.83;4.93;;;;;;;;;;5056732;28;20500;-82
2021/07/01 14:33:42;;;;;;;5.70;4.43;;;;;;;;;;5070836;28;20184;-82
2021/07/01 14:36:21;;;;;;;7.17;4.63;;;;;;;;;;5071249;28;20212;-82
2021/07/01 14:39:07;;;;;;;4.97;4.17;;;;;;;;;;5070003;28;20566;-82
2021/07/01 14:41:37;;;;;;;5.23;4.20;;;;;;;;;;5067184;28;20180;-82
2021/07/01 14:44:03;;;;;;;4.57;4.23;;;;;;;;;;5069073;28;20243;-82